createdAt,value
2018-09-06T00:00:44.127Z,25.20
2018-09-06T00:03:15.499Z,25.10
2018-09-06T00:05:47.055Z,25.00
2018-09-06T00:08:18.286Z,24.90
2018-09-06T00:10:49.783Z,24.80
2018-09-06T00:13:22.454Z,24.70
2018-09-06T00:15:54.802Z,24.70
2018-09-06T00:18:26.069Z,24.60
2018-09-06T00:20:57.732Z,24.30
2018-09-06T00:23:29.139Z,24.40
2018-09-06T00:26:01.414Z,24.60
2018-09-06T00:28:32.749Z,24.80
2018-09-06T00:31:04.165Z,25.00
2018-09-06T00:33:35.364Z,25.00
2018-09-06T00:36:06.886Z,24.90
2018-09-06T00:38:38.129Z,24.70
2018-09-06T00:41:09.891Z,24.80
2018-09-06T00:43:41.275Z,24.80
2018-09-06T00:46:12.854Z,25.00
2018-09-06T00:48:44.213Z,24.90
2018-09-06T00:51:15.810Z,25.00
2018-09-06T00:53:47.616Z,24.90
2018-09-06T00:56:18.979Z,24.90
2018-09-06T00:58:50.373Z,24.90
2018-09-06T01:01:21.826Z,24.90
2018-09-06T01:03:53.341Z,24.90
2018-09-06T01:06:25.293Z,24.70
2018-09-06T01:08:56.516Z,24.80
2018-09-06T01:11:27.821Z,24.70
2018-09-06T01:13:59.021Z,24.80
2018-09-06T01:16:30.322Z,24.80
2018-09-06T01:19:01.633Z,24.60
2018-09-06T01:21:33.015Z,24.70
2018-09-06T01:24:04.277Z,24.70
2018-09-06T01:26:35.892Z,24.80
2018-09-06T01:29:07.310Z,24.80
2018-09-06T01:31:38.570Z,24.80
2018-09-06T01:34:10.424Z,24.80
2018-09-06T01:36:48.166Z,24.80
2018-09-06T01:39:19.138Z,24.80
2018-09-06T01:41:50.341Z,24.90
2018-09-06T01:44:21.847Z,24.70
2018-09-06T01:46:53.132Z,24.60
2018-09-06T01:49:24.419Z,24.60
2018-09-06T01:51:55.881Z,24.30
2018-09-06T01:54:27.497Z,24.40
2018-09-06T01:56:58.659Z,24.50
2018-09-06T01:59:34.037Z,24.40
2018-09-06T02:02:05.055Z,24.40
2018-09-06T02:04:37.012Z,24.50
2018-09-06T02:07:08.921Z,24.40
2018-09-06T02:09:40.105Z,24.30
2018-09-06T02:12:11.122Z,24.20
2018-09-06T02:14:42.369Z,24.20
2018-09-06T02:17:13.582Z,24.30
2018-09-06T02:19:44.786Z,24.10
2018-09-06T02:22:15.839Z,24.10
2018-09-06T02:24:47.112Z,24.10
2018-09-06T02:27:18.489Z,24.10
2018-09-06T02:29:49.705Z,24.20
2018-09-06T02:32:20.957Z,24.20
2018-09-06T02:34:52.464Z,24.10
2018-09-06T02:37:24.622Z,24.10
2018-09-06T02:39:55.882Z,24.10
2018-09-06T02:42:27.141Z,24.10
2018-09-06T02:44:58.701Z,24.00
2018-09-06T02:47:29.950Z,24.00
2018-09-06T02:50:05.315Z,23.90
2018-09-06T02:52:36.321Z,23.90
2018-09-06T02:55:07.414Z,23.80
2018-09-06T02:57:38.414Z,23.80
2018-09-06T03:00:09.423Z,23.90
2018-09-06T03:02:40.514Z,23.90
2018-09-06T03:05:11.742Z,23.90
2018-09-06T03:07:42.882Z,23.80
2018-09-06T03:10:14.102Z,23.70
2018-09-06T03:12:45.753Z,23.60
2018-09-06T03:15:17.187Z,23.40
2018-09-06T03:17:48.361Z,23.10
2018-09-06T03:20:19.509Z,23.00
2018-09-06T03:22:50.607Z,22.90
2018-09-06T03:25:22.009Z,22.80
2018-09-06T03:27:53.361Z,22.90
2018-09-06T03:30:24.519Z,23.00
2018-09-06T03:32:56.044Z,23.00
2018-09-06T03:35:27.090Z,23.00
2018-09-06T03:37:58.443Z,22.80
2018-09-06T03:40:29.691Z,22.90
2018-09-06T03:43:00.983Z,22.70
2018-09-06T03:45:32.752Z,22.80
2018-09-06T03:48:03.955Z,22.90
2018-09-06T03:50:34.913Z,22.70
2018-09-06T03:53:06.211Z,22.40
2018-09-06T03:55:37.437Z,22.50
2018-09-06T03:58:08.800Z,22.40
2018-09-06T04:00:39.873Z,22.50
2018-09-06T04:03:11.168Z,22.40
2018-09-06T04:05:42.151Z,22.20
2018-09-06T04:08:13.991Z,22.20
2018-09-06T04:10:45.209Z,22.40
2018-09-06T04:13:16.597Z,22.40
2018-09-06T04:15:47.805Z,22.50
2018-09-06T04:18:19.088Z,22.60
2018-09-06T04:20:50.226Z,22.80
2018-09-06T04:23:21.862Z,22.80
2018-09-06T04:25:52.942Z,22.90
2018-09-06T04:28:24.249Z,23.00
2018-09-06T04:30:55.466Z,22.90
2018-09-06T04:33:27.277Z,22.90
2018-09-06T04:35:58.480Z,22.70
2018-09-06T04:38:30.056Z,22.80
2018-09-06T04:41:01.102Z,22.70
2018-09-06T04:43:32.602Z,22.60
2018-09-06T04:46:04.759Z,22.70
2018-09-06T04:48:36.364Z,22.70
2018-09-06T04:51:07.602Z,22.80
2018-09-06T04:53:38.669Z,22.90
2018-09-06T04:56:09.785Z,22.90
2018-09-06T04:58:40.951Z,23.00
2018-09-06T05:01:12.095Z,23.00
2018-09-06T05:03:43.377Z,23.20
2018-09-06T05:06:14.701Z,23.10
2018-09-06T05:08:45.842Z,23.00
2018-09-06T05:11:17.533Z,23.00
2018-09-06T05:13:48.690Z,22.90
2018-09-06T05:16:19.813Z,22.90
2018-09-06T05:18:50.909Z,22.80
2018-09-06T05:21:21.970Z,22.80
2018-09-06T05:23:53.070Z,22.60
2018-09-06T05:26:24.470Z,22.60
2018-09-06T05:28:55.925Z,22.70
2018-09-06T05:31:27.122Z,22.50
2018-09-06T05:33:58.157Z,22.50
2018-09-06T05:36:29.227Z,22.50
2018-09-06T05:39:00.332Z,22.50
2018-09-06T05:41:31.616Z,22.50
2018-09-06T05:44:02.744Z,22.70
2018-09-06T05:46:34.582Z,22.80
2018-09-06T05:49:05.737Z,22.70
2018-09-06T05:51:37.609Z,22.60
2018-09-06T05:54:09.210Z,22.50
2018-09-06T05:56:40.315Z,22.60
2018-09-06T05:59:11.249Z,22.60
2018-09-06T06:01:42.726Z,22.60
2018-09-06T06:04:13.745Z,22.40
2018-09-06T06:06:45.114Z,22.40
2018-09-06T06:09:16.224Z,22.40
2018-09-06T06:11:47.519Z,22.50
2018-09-06T06:14:18.604Z,22.60
2018-09-06T06:16:49.728Z,22.50
2018-09-06T06:19:20.962Z,22.60
2018-09-06T06:21:51.983Z,22.70
2018-09-06T06:24:23.025Z,22.70
2018-09-06T06:26:54.161Z,22.70
2018-09-06T06:29:25.838Z,22.50
2018-09-06T06:31:56.891Z,22.60
2018-09-06T06:34:28.031Z,22.60
2018-09-06T06:36:59.856Z,22.50
2018-09-06T06:39:32.302Z,22.50
2018-09-06T06:42:03.742Z,22.60
2018-09-06T06:44:35.017Z,22.60
2018-09-06T06:47:06.037Z,22.60
2018-09-06T06:49:37.487Z,22.50
2018-09-06T06:52:08.665Z,22.50
2018-09-06T06:54:39.902Z,22.60
2018-09-06T06:57:11.133Z,22.70
2018-09-06T06:59:42.399Z,22.60
2018-09-06T07:02:13.456Z,22.40
2018-09-06T07:04:44.815Z,22.30
2018-09-06T07:07:15.964Z,22.40
2018-09-06T07:09:47.369Z,22.30
2018-09-06T07:12:18.323Z,22.20
2018-09-06T07:14:49.749Z,22.30
2018-09-06T07:17:20.861Z,22.20
2018-09-06T07:19:52.257Z,22.00
2018-09-06T07:22:23.251Z,21.60
2018-09-06T07:24:54.390Z,21.50
2018-09-06T07:27:25.600Z,21.10
2018-09-06T07:29:57.173Z,21.00
2018-09-06T07:32:28.608Z,20.80
2018-09-06T07:35:00.371Z,20.80
2018-09-06T07:37:31.489Z,20.90
2018-09-06T07:40:02.821Z,21.10
2018-09-06T07:42:33.911Z,21.30
2018-09-06T07:45:05.637Z,21.40
2018-09-06T07:47:36.738Z,21.30
2018-09-06T07:50:08.122Z,21.10
2018-09-06T07:52:39.233Z,21.00
2018-09-06T07:55:10.502Z,21.00
2018-09-06T07:57:41.862Z,21.10
2018-09-06T08:00:13.126Z,21.10
2018-09-06T08:02:44.088Z,21.20
2018-09-06T08:05:15.541Z,21.10
2018-09-06T08:07:46.657Z,21.10
2018-09-06T08:10:18.047Z,21.10
2018-09-06T08:12:49.180Z,21.00
2018-09-06T08:15:20.448Z,21.00
2018-09-06T08:17:51.397Z,20.90
2018-09-06T08:20:22.653Z,20.80
2018-09-06T08:22:54.027Z,20.60
2018-09-06T08:25:25.630Z,20.60
2018-09-06T08:27:57.048Z,20.60
2018-09-06T08:30:28.638Z,20.50
2018-09-06T08:32:59.538Z,20.40
2018-09-06T08:35:30.977Z,20.40
2018-09-06T08:38:02.207Z,20.30
2018-09-06T08:40:33.410Z,20.10
2018-09-06T08:43:04.499Z,20.20
2018-09-06T08:45:35.753Z,19.80
2018-09-06T08:48:06.841Z,19.50
2018-09-06T08:50:38.048Z,19.60
2018-09-06T08:53:09.165Z,19.80
2018-09-06T08:55:40.307Z,20.10
2018-09-06T08:58:11.437Z,20.20
2018-09-06T09:00:43.673Z,20.20
2018-09-06T09:03:15.012Z,20.30
2018-09-06T09:05:46.259Z,20.20
2018-09-06T09:08:17.558Z,20.20
2018-09-06T09:10:49.105Z,20.10
2018-09-06T09:13:20.255Z,20.10
2018-09-06T09:15:51.607Z,20.20
2018-09-06T09:18:22.940Z,20.20
2018-09-06T09:20:54.314Z,20.20
2018-09-06T09:23:25.441Z,20.30
2018-09-06T09:25:56.654Z,20.40
2018-09-06T09:28:27.622Z,20.20
2018-09-06T09:30:58.979Z,19.90
2018-09-06T09:33:30.238Z,20.00
2018-09-06T09:36:01.828Z,19.90
2018-09-06T09:38:32.998Z,19.90
2018-09-06T09:41:04.254Z,19.90
2018-09-06T09:43:35.461Z,19.90
2018-09-06T09:48:36.609Z,19.60
2018-09-06T09:51:07.912Z,19.60
2018-09-06T09:53:38.969Z,19.60
2018-09-06T09:56:10.178Z,19.70
2018-09-06T09:58:41.491Z,19.90
2018-09-06T10:01:12.719Z,19.90
2018-09-06T10:03:48.405Z,20.10
2018-09-06T10:08:25.579Z,20.10
2018-09-06T10:10:56.993Z,20.10
2018-09-06T10:13:28.024Z,20.00
2018-09-06T10:15:59.740Z,20.00
2018-09-06T10:18:31.305Z,19.90
2018-09-06T10:21:02.786Z,19.90
2018-09-06T10:23:33.984Z,19.80
2018-09-06T10:26:05.204Z,19.70
2018-09-06T10:28:36.504Z,19.80
2018-09-06T10:31:07.751Z,19.70
2018-09-06T10:33:39.373Z,19.60
2018-09-06T10:36:11.283Z,19.60
2018-09-06T10:38:42.705Z,19.60
2018-09-06T10:41:13.888Z,19.40
2018-09-06T10:43:45.251Z,19.30
2018-09-06T10:46:16.226Z,19.20
2018-09-06T10:48:47.663Z,19.10
2018-09-06T10:51:18.751Z,19.00
2018-09-06T10:53:50.334Z,19.00
2018-09-06T10:56:21.763Z,18.90
2018-09-06T10:58:53.041Z,18.90
2018-09-06T11:01:25.250Z,19.10
2018-09-06T11:03:57.979Z,19.20
2018-09-06T11:06:29.585Z,19.40
2018-09-06T11:09:00.867Z,19.50
2018-09-06T11:11:32.143Z,19.50
2018-09-06T11:14:03.502Z,19.60
2018-09-06T11:16:34.777Z,19.50
2018-09-06T11:19:06.006Z,19.40
2018-09-06T11:21:38.004Z,19.40
2018-09-06T11:24:09.302Z,19.30
2018-09-06T11:26:40.606Z,19.20
2018-09-06T11:29:11.874Z,19.30
2018-09-06T11:31:43.440Z,19.20
2018-09-06T11:34:14.676Z,19.20
2018-09-06T11:36:46.006Z,19.20
2018-09-06T11:39:16.968Z,19.10
2018-09-06T11:41:48.187Z,19.10
2018-09-06T11:44:19.449Z,19.10
2018-09-06T11:46:50.749Z,19.20
2018-09-06T11:49:21.846Z,19.10
2018-09-06T11:51:53.402Z,19.00
2018-09-06T11:54:24.889Z,19.00
2018-09-06T11:56:56.024Z,18.90
2018-09-06T11:59:27.503Z,18.90
2018-09-06T12:01:58.792Z,18.90
2018-09-06T12:04:29.866Z,18.80
2018-09-06T12:07:01.061Z,18.80
2018-09-06T12:09:32.572Z,18.80
2018-09-06T12:12:03.970Z,18.80
2018-09-06T12:14:35.582Z,18.70
2018-09-06T12:17:06.720Z,18.70
2018-09-06T12:19:38.092Z,18.70
2018-09-06T12:22:09.244Z,18.70
2018-09-06T12:24:40.815Z,18.70
2018-09-06T12:27:11.921Z,18.70
2018-09-06T12:29:43.179Z,18.70
2018-09-06T12:32:14.409Z,18.70
2018-09-06T12:34:45.922Z,18.70
2018-09-06T12:37:17.664Z,18.70
2018-09-06T12:39:48.876Z,18.70
2018-09-06T12:42:20.209Z,18.70
2018-09-06T12:44:51.694Z,18.70
2018-09-06T12:47:22.982Z,18.70
2018-09-06T12:49:54.407Z,18.70
2018-09-06T12:52:25.529Z,18.70
2018-09-06T12:54:57.503Z,18.70
2018-09-06T12:57:28.721Z,18.70
2018-09-06T12:59:59.996Z,18.70
2018-09-06T13:02:31.395Z,18.70
2018-09-06T13:05:03.386Z,18.70
2018-09-06T13:07:34.780Z,18.70
2018-09-06T13:10:06.458Z,18.70
2018-09-06T13:12:38.060Z,18.70
2018-09-06T13:15:09.408Z,18.70
2018-09-06T13:17:40.808Z,18.70
2018-09-06T13:20:11.995Z,18.80
2018-09-06T13:22:43.208Z,18.80
2018-09-06T13:25:14.458Z,18.80
2018-09-06T13:27:45.585Z,18.90
2018-09-06T13:30:16.980Z,18.90
2018-09-06T13:32:48.304Z,18.90
2018-09-06T13:35:20.766Z,19.00
2018-09-06T13:37:52.311Z,19.00
2018-09-06T13:40:23.538Z,19.10
2018-09-06T13:42:54.632Z,19.10
2018-09-06T13:45:26.063Z,19.20
2018-09-06T13:47:57.080Z,19.20
2018-09-06T13:50:28.590Z,19.20
2018-09-06T13:53:00.506Z,19.30
2018-09-06T13:55:32.111Z,19.30
2018-09-06T13:58:03.318Z,19.30
2018-09-06T14:00:34.515Z,19.40
2018-09-06T14:03:05.738Z,19.40
2018-09-06T14:05:37.274Z,19.60
2018-09-06T14:08:08.410Z,19.70
2018-09-06T14:10:39.507Z,19.80
2018-09-06T14:13:10.945Z,19.80
2018-09-06T14:15:42.356Z,19.90
2018-09-06T14:18:13.517Z,19.90
2018-09-06T14:20:45.169Z,20.10
2018-09-06T14:23:16.068Z,20.10
2018-09-06T14:25:47.299Z,20.20
2018-09-06T14:28:19.404Z,20.30
2018-09-06T14:30:50.908Z,20.30
2018-09-06T14:33:22.355Z,20.40
2018-09-06T14:35:53.836Z,20.40
2018-09-06T14:38:25.119Z,20.40
2018-09-06T14:41:03.918Z,20.50
2018-09-06T14:43:36.104Z,20.60
2018-09-06T14:46:07.466Z,20.80
2018-09-06T14:48:38.707Z,21.00
2018-09-06T14:51:10.205Z,21.20
2018-09-06T14:53:41.319Z,21.50
2018-09-06T14:56:12.565Z,21.60
2018-09-06T14:58:44.059Z,21.60
2018-09-06T15:01:15.368Z,21.60
2018-09-06T15:03:47.011Z,21.60
2018-09-06T15:06:18.246Z,21.90
2018-09-06T15:08:50.489Z,22.30
2018-09-06T15:11:21.795Z,22.50
2018-09-06T15:13:53.108Z,22.50
2018-09-06T15:16:25.489Z,22.50
2018-09-06T15:18:57.075Z,22.70
2018-09-06T15:21:28.309Z,23.10
2018-09-06T15:23:59.511Z,23.30
2018-09-06T15:26:30.878Z,23.50
2018-09-06T15:29:02.562Z,24.00
2018-09-06T15:31:34.170Z,24.60
2018-09-06T15:34:05.351Z,25.00
2018-09-06T15:36:39.255Z,25.00
2018-09-06T15:39:11.611Z,24.70
2018-09-06T15:41:43.219Z,25.20
2018-09-06T15:44:14.544Z,25.40
2018-09-06T15:46:46.113Z,26.00
2018-09-06T15:49:17.313Z,26.50
2018-09-06T15:51:48.724Z,26.90
2018-09-06T15:54:19.880Z,27.50
2018-09-06T15:56:51.353Z,27.00
2018-09-06T15:59:22.922Z,26.80
2018-09-06T16:01:54.096Z,26.80
2018-09-06T16:04:26.523Z,27.30
2018-09-06T16:06:57.700Z,27.20
2018-09-06T16:09:29.095Z,26.70
2018-09-06T16:12:01.046Z,27.20
2018-09-06T16:14:33.157Z,27.00
2018-09-06T16:17:04.618Z,26.70
2018-09-06T16:19:35.937Z,27.00
2018-09-06T16:22:07.285Z,27.00
2018-09-06T16:24:39.503Z,27.40
2018-09-06T16:27:10.695Z,27.20
2018-09-06T16:29:45.393Z,27.20
2018-09-06T16:32:28.119Z,28.30
2018-09-06T16:35:02.310Z,28.80
2018-09-06T16:37:33.972Z,28.30
2018-09-06T16:40:05.562Z,27.50
2018-09-06T16:42:39.450Z,27.30
2018-09-06T16:45:11.105Z,27.40
2018-09-06T16:47:42.245Z,28.20
2018-09-06T16:50:14.468Z,28.20
2018-09-06T16:52:45.920Z,27.20
2018-09-06T16:55:17.326Z,27.10
2018-09-06T16:57:49.675Z,27.10
2018-09-06T17:00:22.481Z,26.30
2018-09-06T17:02:53.545Z,26.60
2018-09-06T17:05:24.819Z,26.80
2018-09-06T17:07:56.802Z,27.40
2018-09-06T17:10:28.025Z,26.90
2018-09-06T17:12:59.230Z,27.30
2018-09-06T17:15:31.273Z,27.00
2018-09-06T17:18:03.588Z,26.80
2018-09-06T17:20:34.885Z,27.30
2018-09-06T17:23:06.683Z,27.10
2018-09-06T17:25:37.964Z,26.90
2018-09-06T17:28:09.344Z,27.20
2018-09-06T17:30:43.877Z,27.40
2018-09-06T17:33:15.238Z,27.70
2018-09-06T17:35:48.174Z,28.30
2018-09-06T17:38:19.712Z,27.90
2018-09-06T17:40:56.907Z,27.90
2018-09-06T17:43:30.564Z,28.40
2018-09-06T17:46:03.411Z,28.80
2018-09-06T17:48:34.980Z,28.60
2018-09-06T17:51:07.663Z,28.70
2018-09-06T17:53:38.996Z,28.90
2018-09-06T17:56:10.998Z,28.80
2018-09-06T17:58:42.793Z,29.30
2018-09-06T18:01:28.144Z,28.70
2018-09-06T18:03:59.505Z,28.50
2018-09-06T18:06:31.773Z,28.30
2018-09-06T18:09:04.278Z,28.80
2018-09-06T18:11:35.972Z,29.40
2018-09-06T18:14:07.114Z,29.80
2018-09-06T18:16:39.158Z,29.90
2018-09-06T18:19:10.487Z,29.90
2018-09-06T18:21:41.974Z,30.00
2018-09-06T18:24:13.198Z,30.20
2018-09-06T18:26:44.490Z,30.40
2018-09-06T18:29:17.059Z,29.50
2018-09-06T18:31:49.047Z,29.60
2018-09-06T18:34:20.269Z,29.70
2018-09-06T18:36:52.135Z,30.20
2018-09-06T18:39:24.325Z,29.20
2018-09-06T18:42:06.829Z,29.50
2018-09-06T18:44:45.288Z,30.10
2018-09-06T18:47:21.513Z,30.20
2018-09-06T18:49:53.956Z,30.30
2018-09-06T18:52:25.195Z,30.80
2018-09-06T18:55:01.318Z,31.00
2018-09-06T18:57:32.069Z,31.40
2018-09-06T19:00:04.338Z,31.70
2018-09-06T19:08:14.540Z,30.30
2018-09-06T19:10:49.200Z,30.50
2018-09-06T19:16:32.498Z,30.40
2018-09-06T19:19:07.626Z,30.60
2018-09-06T19:22:27.247Z,31.20
2018-09-06T19:25:20.852Z,31.40
2018-09-06T19:27:51.860Z,31.30
2018-09-06T19:30:23.391Z,31.40
2018-09-06T19:32:54.712Z,31.40
2018-09-06T19:35:30.873Z,31.80
2018-09-06T19:38:01.636Z,32.00
2018-09-06T19:40:32.617Z,31.10
2018-09-06T19:43:04.752Z,31.50
2018-09-06T19:45:35.651Z,31.60
2018-09-06T19:48:08.560Z,31.60
2018-09-06T19:50:40.493Z,32.00
2018-09-06T19:53:11.329Z,31.80
2018-09-06T19:55:42.233Z,31.50
2018-09-06T19:58:13.490Z,31.80
2018-09-06T20:00:44.594Z,31.00
2018-09-06T20:03:16.027Z,31.30
2018-09-06T20:05:47.077Z,32.00
2018-09-06T20:08:19.613Z,32.50
2018-09-06T20:11:12.719Z,32.90
2018-09-06T20:14:05.856Z,32.80
2018-09-06T20:16:59.753Z,32.80
2018-09-06T20:19:53.089Z,32.60
2018-09-06T20:22:45.667Z,33.20
2018-09-06T20:25:40.034Z,33.10
2018-09-06T20:28:33.008Z,32.80
2018-09-06T20:31:25.442Z,32.10
2018-09-06T20:34:18.731Z,30.80
2018-09-06T20:37:12.863Z,30.70
2018-09-06T20:40:06.213Z,31.10
2018-09-06T20:42:58.862Z,31.70
2018-09-06T20:45:51.877Z,32.20
2018-09-06T20:48:44.524Z,32.20
2018-09-06T20:51:37.557Z,32.10
2018-09-06T20:54:09.246Z,32.00
2018-09-06T20:56:40.380Z,32.00
2018-09-06T20:59:11.291Z,32.50
2018-09-06T21:01:42.279Z,32.10
2018-09-06T21:04:13.169Z,31.10
2018-09-06T21:06:46.044Z,30.40
2018-09-06T21:09:16.934Z,29.60
2018-09-06T21:12:10.448Z,29.20
2018-09-06T21:14:42.909Z,30.00
2018-09-06T21:17:13.664Z,30.90
2018-09-06T21:19:44.776Z,31.00
2018-09-06T21:22:15.668Z,30.70
2018-09-06T21:24:47.121Z,31.10
2018-09-06T21:27:25.874Z,30.90
2018-09-06T21:29:56.945Z,31.10
2018-09-06T21:32:28.761Z,30.20
2018-09-06T21:34:59.798Z,30.10
2018-09-06T21:37:31.853Z,30.30
2018-09-06T21:40:03.118Z,30.40
2018-09-06T21:42:35.182Z,29.90
2018-09-06T21:45:06.647Z,29.80
2018-09-06T21:47:37.798Z,29.60
2018-09-06T21:50:10.009Z,29.50
2018-09-06T21:52:40.976Z,29.90
2018-09-06T21:55:11.894Z,29.90
2018-09-06T21:57:43.107Z,29.50
2018-09-06T22:00:14.247Z,29.30
2018-09-06T22:02:49.674Z,28.80
2018-09-06T22:05:21.850Z,28.30
2018-09-06T22:07:53.167Z,28.30
2018-09-06T22:10:24.922Z,27.90
2018-09-06T22:12:55.916Z,28.10
2018-09-06T22:15:27.073Z,27.90
2018-09-06T22:17:57.950Z,28.10
2018-09-06T22:20:28.948Z,28.10
2018-09-06T22:22:59.868Z,28.20
2018-09-06T22:25:31.024Z,28.00
2018-09-06T22:28:02.276Z,28.00
2018-09-06T22:30:33.459Z,27.90
2018-09-06T22:33:04.326Z,27.90
2018-09-06T22:35:35.905Z,27.70
2018-09-06T22:38:06.893Z,27.70
2018-09-06T22:40:38.773Z,27.70
2018-09-06T22:43:09.642Z,27.70
2018-09-06T22:45:40.925Z,27.80
2018-09-06T22:48:11.983Z,27.90
2018-09-06T22:50:43.058Z,28.00
2018-09-06T22:53:14.033Z,27.90
2018-09-06T22:55:45.057Z,27.50
2018-09-06T22:58:15.891Z,27.00
2018-09-06T23:00:50.826Z,26.90
2018-09-06T23:03:26.511Z,26.80
2018-09-06T23:05:58.715Z,26.70
2018-09-06T23:08:29.712Z,26.70
2018-09-06T23:11:00.469Z,26.60
2018-09-06T23:13:31.364Z,26.50
2018-09-06T23:16:02.538Z,26.30
2018-09-06T23:18:33.380Z,26.00
2018-09-06T23:21:04.388Z,25.90
2018-09-06T23:23:35.105Z,25.70
2018-09-06T23:26:08.045Z,25.30
2018-09-06T23:28:39.162Z,25.20
2018-09-06T23:31:10.301Z,25.30
2018-09-06T23:33:41.300Z,25.40
2018-09-06T23:36:12.285Z,25.50
2018-09-06T23:38:43.180Z,25.50
2018-09-06T23:41:14.058Z,25.50
2018-09-06T23:43:45.433Z,25.30
2018-09-06T23:46:16.732Z,25.20
2018-09-06T23:48:47.876Z,24.90
2018-09-06T23:51:18.778Z,24.70
2018-09-06T23:53:49.855Z,24.80
2018-09-06T23:56:21.238Z,24.70
2018-09-06T23:58:52.129Z,24.70
